FMNM/MJN METAR and TAF weather

Enter ICAO airport designator
Station Type Date Time Source
FMNM METAR 2021/09/25 13:00 UTC NOAA

FMNM 251300Z 33008KT 270V350 9999 SCT023 30/19 Q1014 NOSIG


Station Type Date Time Source
FMNM Decoded METAR 2021/09/25 13:00 UTC NOAA

Majunga, Madagascar (FMNM) 15-40S 046-21E 18M
Sep 25, 2021 - 09:00 AM EDT / 2021.09.25 1300 UTC
Wind: from the NNW (330 degrees) at 9 MPH (8 KT) (direction variable):0
Visibility: greater than 7 mile(s):0
Sky conditions: partly cloudy
Temperature: 86 F (30 C)
Dew Point: 66 F (19 C)
Relative Humidity: 51%
Pressure (altimeter): 29.94 in. Hg (1014 hPa)
ob: FMNM 251300Z 33008KT 270V350 9999 SCT023 30/19 Q1014 NOSIG
cycle: 13

Station Type Date Time Source
FMNM TAF 2021/09/25 12:04 UTC NOAA

TAF FMNM 251100Z 2512/2612 30010KT 9999 FEW023
BECMG 2517/2520 14007KT

Example: see airport list